createdAt,value
2022-08-08T00:00:50.580Z,3.92
2022-08-08T00:02:31.107Z,4.15
2022-08-08T00:05:22.393Z,4.38
2022-08-08T00:08:59.176Z,4.82
2022-08-08T00:12:09.510Z,4.05
2022-08-08T00:14:58.725Z,3.80
2022-08-08T00:18:01.764Z,3.10
2022-08-08T00:20:55.148Z,3.00
2022-08-08T00:23:42.773Z,2.72
2022-08-08T00:26:29.096Z,2.97
2022-08-08T00:29:45.181Z,3.15
2022-08-08T00:32:38.771Z,2.83
2022-08-08T00:35:51.489Z,3.22
2022-08-08T00:38:44.358Z,2.85
2022-08-08T00:42:32.965Z,2.70
2022-08-08T00:45:37.644Z,2.75
2022-08-08T00:48:30.108Z,3.15
2022-08-08T00:51:54.765Z,3.53
2022-08-08T00:55:52.544Z,3.05
2022-08-08T00:58:36.655Z,3.63
2022-08-08T01:01:39.251Z,5.00
2022-08-08T01:05:41.739Z,3.80
2022-08-08T01:08:12.321Z,4.10
2022-08-08T01:10:59.938Z,5.43
2022-08-08T01:14:04.742Z,6.05
2022-08-08T01:17:09.562Z,5.72
2022-08-08T01:20:02.659Z,5.88
2022-08-08T01:23:06.277Z,6.68
2022-08-08T01:26:18.503Z,6.88
2022-08-08T01:29:17.817Z,5.70
2022-08-08T01:32:41.904Z,5.45
2022-08-08T01:35:29.826Z,4.72
2022-08-08T01:38:37.992Z,4.90
2022-08-08T01:41:34.366Z,4.30
2022-08-08T01:44:18.292Z,5.22
2022-08-08T01:48:14.473Z,5.35
2022-08-08T01:50:29.782Z,5.45
2022-08-08T01:54:33.113Z,4.72
2022-08-08T01:56:48.883Z,4.05
2022-08-08T02:00:01.788Z,3.85
2022-08-08T02:03:54.367Z,3.35
2022-08-08T02:06:43.638Z,3.33
2022-08-08T02:10:03.998Z,3.28
2022-08-08T02:13:03.333Z,2.58
2022-08-08T02:15:54.291Z,2.28
2022-08-08T02:18:59.523Z,2.42
2022-08-08T02:22:28.333Z,2.78
2022-08-08T02:25:20.516Z,2.75
2022-08-08T02:28:06.604Z,1.92
2022-08-08T02:30:50.134Z,2.67
2022-08-08T02:34:08.252Z,2.38
2022-08-08T02:37:53.554Z,2.10
2022-08-08T02:40:45.046Z,1.48
2022-08-08T02:44:37.276Z,2.75
2022-08-08T02:46:53.004Z,2.17
2022-08-08T02:50:15.340Z,1.60
2022-08-08T02:53:17.105Z,2.03
2022-08-08T02:56:51.737Z,1.75
2022-08-08T03:00:26.843Z,2.35
2022-08-08T03:03:46.070Z,1.77
2022-08-08T03:07:19.776Z,1.27
2022-08-08T03:10:44.591Z,1.38
2022-08-08T03:15:58.224Z,1.42
2022-08-08T03:16:50.986Z,1.92
2022-08-08T03:20:08.093Z,1.40
2022-08-08T03:23:04.497Z,1.83
2022-08-08T03:25:36.390Z,1.60
2022-08-08T03:28:30.265Z,1.40
2022-08-08T03:31:13.618Z,1.58
2022-08-08T03:33:56.795Z,1.80
2022-08-08T03:39:14.540Z,1.45
2022-08-08T03:42:11.849Z,1.45
2022-08-08T03:44:38.750Z,1.75
2022-08-08T03:47:19.713Z,1.67
2022-08-08T03:50:00.793Z,1.65
2022-08-08T03:52:35.389Z,2.47
2022-08-08T03:55:20.109Z,1.75
2022-08-08T03:58:36.459Z,0.93
2022-08-08T04:01:24.441Z,0.60
2022-08-08T04:03:59.238Z,0.30
2022-08-08T04:06:31.091Z,1.48
2022-08-08T04:09:11.255Z,0.25
2022-08-08T04:11:48.360Z,0.50
2022-08-08T04:14:36.555Z,0.28
2022-08-08T04:17:22.568Z,0.80
2022-08-08T04:19:56.596Z,0.10
2022-08-08T04:22:29.707Z,0.33
2022-08-08T04:24:59.365Z,0.13
2022-08-08T04:28:01.770Z,0.13
2022-08-08T04:30:19.621Z,0.30
2022-08-08T04:32:52.003Z,0.40
2022-08-08T04:35:23.908Z,0.38
2022-08-08T04:37:54.651Z,0.20
2022-08-08T04:40:35.311Z,0.10
2022-08-08T04:43:05.571Z,0.22
2022-08-08T04:45:41.604Z,0.25
2022-08-08T04:48:10.964Z,0.55
2022-08-08T04:50:46.018Z,0.30
2022-08-08T04:54:27.444Z,0.52
2022-08-08T04:56:10.045Z,0.20
2022-08-08T04:58:38.350Z,0.40
2022-08-08T05:04:10.408Z,0.40
2022-08-08T05:06:39.225Z,0.17
2022-08-08T05:09:09.533Z,0.30
2022-08-08T05:11:41.562Z,0.40
2022-08-08T05:14:12.760Z,0.30
2022-08-08T05:16:52.756Z,0.30
2022-08-08T05:20:12.686Z,0.40
2022-08-08T05:22:14.166Z,0.35
2022-08-08T05:24:48.068Z,0.40
2022-08-08T05:27:19.309Z,0.20
2022-08-08T05:29:50.286Z,0.38
2022-08-08T05:32:24.623Z,0.55
2022-08-08T05:35:04.649Z,0.57
2022-08-08T05:37:52.541Z,0.43
2022-08-08T05:40:28.095Z,0.45
2022-08-08T05:43:39.124Z,0.32
2022-08-08T05:46:07.591Z,0.10
2022-08-08T05:48:41.858Z,0.20
2022-08-08T05:51:15.841Z,0.17
2022-08-08T05:54:29.018Z,0.13
2022-08-08T05:56:47.634Z,0.35
2022-08-08T06:00:00.906Z,0.20
2022-08-08T06:02:43.681Z,0.30
2022-08-08T06:05:34.759Z,0.55
2022-08-08T06:08:09.684Z,0.40
2022-08-08T06:10:42.020Z,0.28
2022-08-08T06:13:12.689Z,0.30
2022-08-08T06:15:51.072Z,0.22
2022-08-08T06:18:40.217Z,0.20
2022-08-08T06:21:11.722Z,0.20
2022-08-08T06:24:03.325Z,0.70
2022-08-08T06:26:45.316Z,0.75
2022-08-08T06:30:02.719Z,0.73
2022-08-08T06:32:53.193Z,0.68
2022-08-08T06:36:06.772Z,0.63
2022-08-08T06:38:19.881Z,0.60
2022-08-08T06:40:54.429Z,0.95
2022-08-08T06:43:34.279Z,0.45
2022-08-08T06:46:17.907Z,0.32
2022-08-08T06:48:55.171Z,0.80
2022-08-08T06:51:25.243Z,1.05
2022-08-08T06:54:03.105Z,1.45
2022-08-08T06:56:37.108Z,0.50
2022-08-08T06:59:09.762Z,1.00
2022-08-08T07:02:24.369Z,0.95
2022-08-08T07:04:58.637Z,0.52
2022-08-08T07:07:59.845Z,1.50
2022-08-08T07:10:48.787Z,1.25
2022-08-08T07:13:19.117Z,1.17
2022-08-08T07:16:04.664Z,0.98
2022-08-08T07:19:10.122Z,2.22
2022-08-08T07:22:05.542Z,2.67
2022-08-08T07:24:54.313Z,2.00
2022-08-08T07:27:27.777Z,1.70
2022-08-08T07:30:12.104Z,2.03
2022-08-08T07:35:15.731Z,1.23
2022-08-08T07:38:04.676Z,2.10
2022-08-08T07:41:04.798Z,1.90
2022-08-08T07:43:38.019Z,2.38
2022-08-08T07:46:23.111Z,2.53
2022-08-08T07:48:53.068Z,2.03
2022-08-08T07:51:23.042Z,2.80
2022-08-08T07:54:26.609Z,2.05
2022-08-08T07:57:27.254Z,1.60
2022-08-08T08:00:17.195Z,2.47
2022-08-08T08:03:20.866Z,2.72
2022-08-08T08:05:56.517Z,3.33
2022-08-08T08:08:39.357Z,2.72
2022-08-08T08:11:34.125Z,2.58
2022-08-08T08:14:18.078Z,2.38
2022-08-08T08:16:50.353Z,2.83
2022-08-08T08:19:21.111Z,2.95
2022-08-08T08:21:57.223Z,2.67
2022-08-08T08:24:55.453Z,3.05
2022-08-08T08:27:25.631Z,3.20
2022-08-08T08:29:59.465Z,3.28
2022-08-08T08:32:36.732Z,3.88
2022-08-08T08:35:21.386Z,2.80
2022-08-08T08:38:17.217Z,2.92
2022-08-08T08:40:52.025Z,3.08
2022-08-08T08:46:05.508Z,2.72
2022-08-08T08:48:35.092Z,3.33
2022-08-08T08:51:05.410Z,3.80
2022-08-08T08:53:56.248Z,3.38
2022-08-08T08:56:29.414Z,2.97
2022-08-08T08:59:05.751Z,3.40
2022-08-08T09:01:45.373Z,3.63
2022-08-08T09:04:31.457Z,3.90
2022-08-08T09:07:22.851Z,4.68
2022-08-08T09:09:58.149Z,3.40
2022-08-08T09:12:38.296Z,3.42
2022-08-08T09:15:07.322Z,2.70
2022-08-08T09:17:55.298Z,3.42
2022-08-08T09:21:56.793Z,4.00
2022-08-08T09:23:17.595Z,3.65
2022-08-08T09:26:02.130Z,3.78
2022-08-08T09:28:39.579Z,4.32
2022-08-08T09:31:42.742Z,4.32
2022-08-08T09:34:34.102Z,3.65
2022-08-08T09:37:57.950Z,3.83
2022-08-08T09:40:16.108Z,3.17
2022-08-08T09:46:10.974Z,3.30
2022-08-08T09:48:42.671Z,3.58
2022-08-08T09:51:15.064Z,4.45
2022-08-08T09:53:59.189Z,5.07
2022-08-08T09:59:50.111Z,2.90
2022-08-08T10:02:12.947Z,3.70
2022-08-08T10:04:48.116Z,3.22
2022-08-08T10:07:17.470Z,4.50
2022-08-08T10:12:53.140Z,4.05
2022-08-08T10:15:25.594Z,3.50
2022-08-08T10:18:06.545Z,4.30
2022-08-08T10:20:57.783Z,4.47
2022-08-08T10:23:58.719Z,4.80
2022-08-08T10:29:44.122Z,3.65
2022-08-08T10:32:40.386Z,4.40
2022-08-08T10:36:09.538Z,4.00
2022-08-08T10:38:14.392Z,4.10
2022-08-08T10:40:50.415Z,5.05
2022-08-08T10:43:18.459Z,4.57
2022-08-08T10:45:57.269Z,4.20
2022-08-08T10:48:56.776Z,3.63
2022-08-08T10:51:31.086Z,4.50
2022-08-08T10:54:02.126Z,3.28
2022-08-08T10:56:35.486Z,3.08
2022-08-08T10:59:09.304Z,4.18
2022-08-08T11:01:39.475Z,3.60
2022-08-08T11:04:12.186Z,3.58
2022-08-08T11:06:41.666Z,3.83
2022-08-08T11:09:21.592Z,4.13
2022-08-08T11:12:04.946Z,4.50
2022-08-08T11:14:58.102Z,4.53
2022-08-08T11:17:58.212Z,6.22
2022-08-08T11:20:29.036Z,6.68
2022-08-08T11:22:59.756Z,6.95
2022-08-08T11:25:53.256Z,8.18
2022-08-08T11:28:30.903Z,9.00
2022-08-08T11:31:03.746Z,9.52
2022-08-08T11:33:53.210Z,8.75
2022-08-08T11:36:27.864Z,7.45
2022-08-08T11:38:58.058Z,7.20
2022-08-08T11:44:02.636Z,6.68
2022-08-08T11:46:34.440Z,6.63
2022-08-08T11:49:09.278Z,7.32
2022-08-08T11:51:40.193Z,6.97
2022-08-08T11:54:31.923Z,6.80
2022-08-08T11:57:27.071Z,5.63
2022-08-08T12:00:05.433Z,5.32
2022-08-08T12:02:54.735Z,6.03
2022-08-08T12:05:34.934Z,5.72
2022-08-08T12:08:04.872Z,4.95
2022-08-08T12:10:33.838Z,5.72
2022-08-08T12:13:07.295Z,5.25
2022-08-08T12:15:48.316Z,4.18
2022-08-08T12:18:21.197Z,4.35
2022-08-08T12:20:56.662Z,4.68
2022-08-08T12:23:43.544Z,5.05
2022-08-08T12:26:27.217Z,5.30
2022-08-08T12:28:58.632Z,5.35
2022-08-08T12:31:39.121Z,5.05
2022-08-08T12:35:01.358Z,4.70
2022-08-08T12:37:41.065Z,4.90
2022-08-08T12:40:22.722Z,5.45
2022-08-08T12:42:53.050Z,4.85
2022-08-08T12:45:57.829Z,5.25
2022-08-08T12:48:36.530Z,5.20
2022-08-08T12:51:11.275Z,4.18
2022-08-08T12:53:59.765Z,4.40
2022-08-08T12:56:36.151Z,5.05
2022-08-08T12:59:14.805Z,5.15
2022-08-08T13:01:49.372Z,4.22
2022-08-08T13:04:24.630Z,4.97
2022-08-08T13:07:04.475Z,4.35
2022-08-08T13:09:43.012Z,4.22
2022-08-08T13:12:44.469Z,4.47
2022-08-08T13:15:20.292Z,3.85
2022-08-08T13:18:07.555Z,3.42
2022-08-08T13:20:45.913Z,3.58
2022-08-08T13:23:41.296Z,3.25
2022-08-08T13:26:14.940Z,3.30
2022-08-08T13:28:45.753Z,3.35
2022-08-08T13:31:16.311Z,3.90
2022-08-08T13:33:50.842Z,3.40
2022-08-08T13:36:27.694Z,3.65
2022-08-08T13:39:00.284Z,3.42
2022-08-08T13:41:39.614Z,3.30
2022-08-08T13:44:19.459Z,3.83
2022-08-08T13:46:58.485Z,3.42
2022-08-08T13:50:37.386Z,3.70
2022-08-08T13:52:23.014Z,3.60
2022-08-08T13:55:06.746Z,3.58
2022-08-08T13:57:46.389Z,3.17
2022-08-08T14:00:24.500Z,3.90
2022-08-08T14:03:20.103Z,4.32
2022-08-08T14:08:30.415Z,4.18
2022-08-08T14:11:02.515Z,3.88
2022-08-08T14:13:33.644Z,4.03
2022-08-08T14:16:16.253Z,3.15
2022-08-08T14:19:00.623Z,3.30
2022-08-08T14:21:48.962Z,3.33
2022-08-08T14:24:34.319Z,3.45
2022-08-08T14:27:07.738Z,3.42
2022-08-08T14:29:39.129Z,3.67
2022-08-08T14:32:11.595Z,4.63
2022-08-08T14:34:42.652Z,4.35
2022-08-08T14:37:12.934Z,3.42
2022-08-08T14:40:05.763Z,3.97
2022-08-08T14:42:54.649Z,4.63
2022-08-08T14:45:46.978Z,3.83
2022-08-08T14:48:34.234Z,3.83
2022-08-08T14:51:07.401Z,4.07
2022-08-08T14:53:55.090Z,4.00
2022-08-08T14:56:25.977Z,4.55
2022-08-08T14:58:55.062Z,4.07
2022-08-08T15:01:37.298Z,5.00
2022-08-08T15:04:11.172Z,4.35
2022-08-08T15:06:39.250Z,4.30
2022-08-08T15:09:11.259Z,4.00
2022-08-08T15:11:43.145Z,3.88
2022-08-08T15:14:15.274Z,4.47
2022-08-08T15:16:44.473Z,4.32
2022-08-08T15:19:15.053Z,5.05
2022-08-08T15:21:44.739Z,4.10
2022-08-08T15:24:15.944Z,4.88
2022-08-08T15:26:46.640Z,4.35
2022-08-08T15:29:22.522Z,4.47
2022-08-08T15:32:02.916Z,4.38
2022-08-08T15:34:41.301Z,5.05
2022-08-08T15:37:09.683Z,4.70
2022-08-08T15:42:18.206Z,4.28
2022-08-08T15:44:59.015Z,4.15
2022-08-08T15:47:26.566Z,3.90
2022-08-08T15:49:54.472Z,4.20
2022-08-08T15:54:56.509Z,3.92
2022-08-08T15:57:24.300Z,3.78
2022-08-08T16:00:06.437Z,4.57
2022-08-08T16:02:44.651Z,4.53
2022-08-08T16:07:52.892Z,4.70
2022-08-08T16:13:10.232Z,4.35
2022-08-08T16:13:33.530Z,4.60
2022-08-08T16:16:13.338Z,5.35
2022-08-08T16:18:56.502Z,4.80
2022-08-08T16:21:30.874Z,5.45
2022-08-08T16:24:07.574Z,4.38
2022-08-08T16:26:42.252Z,5.35
2022-08-08T16:29:15.630Z,5.32
2022-08-08T16:31:48.585Z,5.07
2022-08-08T16:34:21.929Z,5.40
2022-08-08T16:36:52.897Z,5.15
2022-08-08T16:39:59.497Z,5.10
2022-08-08T16:42:18.636Z,5.45
2022-08-08T16:44:54.603Z,5.20
2022-08-08T16:47:40.514Z,5.00
2022-08-08T16:50:15.112Z,6.03
2022-08-08T16:55:03.427Z,5.47
2022-08-08T16:55:54.208Z,6.20
2022-08-08T16:58:26.644Z,5.57
2022-08-08T17:00:58.830Z,6.50
2022-08-08T17:04:00.657Z,6.05
2022-08-08T17:06:36.796Z,6.18
2022-08-08T17:09:04.211Z,5.43
2022-08-08T17:11:48.518Z,5.45
2022-08-08T17:14:27.278Z,5.95
2022-08-08T17:17:04.953Z,4.82
2022-08-08T17:19:40.752Z,5.15
2022-08-08T17:22:09.707Z,5.20
2022-08-08T17:24:37.653Z,4.80
2022-08-08T17:27:05.689Z,4.90
2022-08-08T17:29:36.504Z,4.18
2022-08-08T17:32:11.109Z,4.18
2022-08-08T17:34:59.779Z,4.03
2022-08-08T17:37:27.557Z,6.18
2022-08-08T17:40:10.838Z,5.22
2022-08-08T17:42:47.251Z,5.18
2022-08-08T17:45:22.443Z,6.13
2022-08-08T17:47:54.092Z,4.75
2022-08-08T17:50:24.757Z,5.20
2022-08-08T17:52:53.855Z,4.60
2022-08-08T17:56:03.460Z,4.47
2022-08-08T17:58:12.390Z,4.20
2022-08-08T18:00:41.555Z,3.83
2022-08-08T18:03:13.696Z,3.83
2022-08-08T18:05:48.063Z,4.75
2022-08-08T18:08:24.704Z,3.03
2022-08-08T18:11:15.291Z,3.10
2022-08-08T18:13:47.772Z,3.92
2022-08-08T18:16:20.675Z,3.88
2022-08-08T18:18:57.338Z,2.35
2022-08-08T18:21:59.390Z,3.08
2022-08-08T18:24:30.186Z,2.17
2022-08-08T18:27:00.803Z,2.67
2022-08-08T18:29:37.165Z,1.70
2022-08-08T18:32:08.649Z,2.13
2022-08-08T18:34:40.283Z,1.67
2022-08-08T18:37:17.843Z,1.85
2022-08-08T18:39:58.477Z,2.08
2022-08-08T18:42:26.327Z,1.90
2022-08-08T18:44:57.427Z,2.00
2022-08-08T18:47:27.051Z,2.00
2022-08-08T18:49:59.971Z,1.33
2022-08-08T18:52:30.454Z,1.52
2022-08-08T18:55:09.846Z,1.10
2022-08-08T18:57:44.976Z,1.33
2022-08-08T19:00:22.701Z,0.95
2022-08-08T19:02:55.619Z,0.82
2022-08-08T19:05:44.103Z,0.57
2022-08-08T19:08:24.891Z,1.20
2022-08-08T19:11:01.600Z,0.73
2022-08-08T19:13:53.447Z,1.05
2022-08-08T19:16:20.666Z,0.77
2022-08-08T19:19:02.265Z,0.57
2022-08-08T19:21:33.449Z,0.50
2022-08-08T19:24:05.296Z,0.50
2022-08-08T19:26:37.727Z,0.50
2022-08-08T19:29:06.615Z,1.10
2022-08-08T19:34:36.787Z,0.75
2022-08-08T19:36:58.981Z,0.65
2022-08-08T19:39:34.996Z,0.50
2022-08-08T19:42:06.761Z,1.00
2022-08-08T19:44:43.436Z,0.70
2022-08-08T19:47:15.752Z,0.80
2022-08-08T19:52:34.417Z,0.65
2022-08-08T19:55:12.745Z,0.90
2022-08-08T19:57:45.667Z,0.73
2022-08-08T20:00:28.995Z,0.90
2022-08-08T20:03:14.708Z,0.60
2022-08-08T20:06:14.518Z,0.55
2022-08-08T20:08:40.286Z,0.60
2022-08-08T20:11:14.791Z,0.65
2022-08-08T20:14:12.683Z,0.82
2022-08-08T20:16:40.437Z,0.50
2022-08-08T20:19:09.769Z,0.68
2022-08-08T20:21:38.548Z,0.77
2022-08-08T20:24:07.739Z,0.63
2022-08-08T20:26:38.489Z,0.90
2022-08-08T20:29:11.082Z,1.10
2022-08-08T20:31:47.343Z,1.00
2022-08-08T20:34:31.909Z,0.70
2022-08-08T20:37:03.301Z,0.95
2022-08-08T20:39:39.468Z,1.27
2022-08-08T20:42:28.511Z,0.50
2022-08-08T20:44:58.769Z,0.63
2022-08-08T20:47:26.837Z,0.45
2022-08-08T20:50:05.571Z,0.60
2022-08-08T20:52:33.223Z,0.75
2022-08-08T20:55:01.661Z,0.40
2022-08-08T20:57:43.930Z,0.65
2022-08-08T21:00:15.869Z,0.60
2022-08-08T21:02:48.478Z,0.65
2022-08-08T21:05:16.570Z,0.80
2022-08-08T21:08:33.305Z,0.75
2022-08-08T21:10:33.592Z,1.00
2022-08-08T21:13:01.145Z,1.05
2022-08-08T21:16:06.088Z,0.80
2022-08-08T21:18:17.930Z,0.85
2022-08-08T21:20:50.642Z,1.35
2022-08-08T21:23:19.128Z,0.80
2022-08-08T21:25:54.755Z,1.05
2022-08-08T21:28:35.975Z,0.88
2022-08-08T21:31:22.982Z,0.75
2022-08-08T21:33:55.024Z,1.45
2022-08-08T21:36:28.882Z,1.02
2022-08-08T21:38:58.365Z,0.90
2022-08-08T21:41:38.078Z,0.70
2022-08-08T21:44:12.091Z,0.95
2022-08-08T21:48:07.085Z,0.93
2022-08-08T21:49:30.825Z,1.13
2022-08-08T21:54:31.175Z,1.10
2022-08-08T21:55:02.497Z,0.90
2022-08-08T21:57:42.492Z,1.20
2022-08-08T22:00:14.817Z,0.98
2022-08-08T22:02:45.098Z,1.80
2022-08-08T22:05:14.764Z,0.77
2022-08-08T22:07:47.384Z,0.77
2022-08-08T22:10:32.253Z,0.63
2022-08-08T22:13:17.658Z,0.65
2022-08-08T22:15:59.088Z,0.30
2022-08-08T22:18:34.341Z,0.28
2022-08-08T22:21:14.371Z,0.25
2022-08-08T22:23:52.192Z,0.50
2022-08-08T22:26:28.872Z,0.20
2022-08-08T22:29:13.254Z,0.47
2022-08-08T22:32:02.407Z,0.30
2022-08-08T22:34:39.235Z,0.22
2022-08-08T22:37:15.074Z,0.20
2022-08-08T22:40:01.381Z,0.20
2022-08-08T22:42:31.861Z,0.30
2022-08-08T22:45:12.419Z,0.20
2022-08-08T22:47:47.045Z,0.30
2022-08-08T22:50:25.767Z,0.30
2022-08-08T22:54:33.781Z,0.20
2022-08-08T22:55:58.034Z,0.50
2022-08-08T22:58:33.298Z,0.20
2022-08-08T23:02:03.002Z,0.20
2022-08-08T23:03:54.991Z,0.30
2022-08-08T23:06:25.710Z,0.55
2022-08-08T23:09:00.027Z,0.60
2022-08-08T23:11:30.791Z,0.98
2022-08-08T23:14:20.527Z,1.55
2022-08-08T23:16:54.840Z,2.25
2022-08-08T23:19:31.073Z,2.00
2022-08-08T23:22:06.532Z,2.45
2022-08-08T23:24:41.356Z,2.45
2022-08-08T23:27:37.931Z,2.85
2022-08-08T23:30:03.045Z,1.90
2022-08-08T23:32:32.036Z,2.47
2022-08-08T23:35:00.931Z,0.85
2022-08-08T23:37:54.276Z,1.00
2022-08-08T23:40:22.085Z,1.07
2022-08-08T23:42:51.518Z,1.20
2022-08-08T23:49:02.240Z,1.80
2022-08-08T23:49:05.982Z,1.17
2022-08-08T23:50:57.456Z,1.65
2022-08-08T23:54:04.717Z,1.40
2022-08-08T23:56:13.796Z,1.63
2022-08-08T23:58:52.030Z,2.70
